sensor_id;sensor_type;location;lat;lon;timestamp;temperature;humidity
74540;SHT31;66042;51.090;-115.340;2023-06-14T00:01:48;26.12;31.67
74540;SHT31;66042;51.090;-115.340;2023-06-14T00:04:16;25.80;32.36
74540;SHT31;66042;51.090;-115.340;2023-06-14T00:06:44;25.47;33.16
74540;SHT31;66042;51.090;-115.340;2023-06-14T00:09:13;25.10;34.93
74540;SHT31;66042;51.090;-115.340;2023-06-14T00:11:43;24.79;36.99
74540;SHT31;66042;51.090;-115.340;2023-06-14T00:16:56;24.08;39.27
74540;SHT31;66042;51.090;-115.340;2023-06-14T00:19:24;23.83;40.16
74540;SHT31;66042;51.090;-115.340;2023-06-14T00:24:37;23.31;41.21
74540;SHT31;66042;51.090;-115.340;2023-06-14T00:27:22;23.08;41.54
74540;SHT31;66042;51.090;-115.340;2023-06-14T00:30:09;22.89;42.92
74540;SHT31;66042;51.090;-115.340;2023-06-14T00:36:00;22.02;46.90
74540;SHT31;66042;51.090;-115.340;2023-06-14T00:38:27;21.81;49.07
74540;SHT31;66042;51.090;-115.340;2023-06-14T00:40:54;21.58;50.13
74540;SHT31;66042;51.090;-115.340;2023-06-14T00:43:21;21.52;51.21
74540;SHT31;66042;51.090;-115.340;2023-06-14T00:48:34;21.29;52.03
74540;SHT31;66042;51.090;-115.340;2023-06-14T00:51:21;21.24;50.99
74540;SHT31;66042;51.090;-115.340;2023-06-14T00:53:48;21.18;50.00
74540;SHT31;66042;51.090;-115.340;2023-06-14T00:56:16;21.06;50.31
74540;SHT31;66042;51.090;-115.340;2023-06-14T00:59:02;20.92;51.94
74540;SHT31;66042;51.090;-115.340;2023-06-14T01:01:32;20.92;52.63
74540;SHT31;66042;51.090;-115.340;2023-06-14T01:04:17;20.94;52.43
74540;SHT31;66042;51.090;-115.340;2023-06-14T01:10:00;21.04;52.01
74540;SHT31;66042;51.090;-115.340;2023-06-14T01:15:48;20.70;52.01
74540;SHT31;66042;51.090;-115.340;2023-06-14T01:18:18;20.55;52.26
74540;SHT31;66042;51.090;-115.340;2023-06-14T01:20:46;20.45;52.66
74540;SHT31;66042;51.090;-115.340;2023-06-14T01:23:20;20.35;52.89
74540;SHT31;66042;51.090;-115.340;2023-06-14T01:25:49;20.25;53.14
74540;SHT31;66042;51.090;-115.340;2023-06-14T01:28:20;20.13;53.70
74540;SHT31;66042;51.090;-115.340;2023-06-14T01:30:52;20.00;54.10
74540;SHT31;66042;51.090;-115.340;2023-06-14T01:33:22;19.92;53.68
74540;SHT31;66042;51.090;-115.340;2023-06-14T01:35:53;19.93;53.83
74540;SHT31;66042;51.090;-115.340;2023-06-14T01:38:24;19.94;54.36
74540;SHT31;66042;51.090;-115.340;2023-06-14T01:40:56;19.91;55.36
74540;SHT31;66042;51.090;-115.340;2023-06-14T01:43:25;19.89;55.28
74540;SHT31;66042;51.090;-115.340;2023-06-14T01:45:55;19.80;55.42
74540;SHT31;66042;51.090;-115.340;2023-06-14T01:48:41;19.68;55.40
74540;SHT31;66042;51.090;-115.340;2023-06-14T01:51:09;19.59;55.92
74540;SHT31;66042;51.090;-115.340;2023-06-14T01:56:22;19.42;54.22
74540;SHT31;66042;51.090;-115.340;2023-06-14T01:58:49;19.32;54.20
74540;SHT31;66042;51.090;-115.340;2023-06-14T02:01:17;19.26;53.94
74540;SHT31;66042;51.090;-115.340;2023-06-14T02:03:47;19.16;53.87
74540;SHT31;66042;51.090;-115.340;2023-06-14T02:06:14;19.12;53.27
74540;SHT31;66042;51.090;-115.340;2023-06-14T02:08:41;19.04;52.88
74540;SHT31;66042;51.090;-115.340;2023-06-14T02:11:09;18.97;53.68
74540;SHT31;66042;51.090;-115.340;2023-06-14T02:13:35;18.95;54.62
74540;SHT31;66042;51.090;-115.340;2023-06-14T02:16:02;18.96;55.68
74540;SHT31;66042;51.090;-115.340;2023-06-14T02:21:16;18.88;56.78
74540;SHT31;66042;51.090;-115.340;2023-06-14T02:23:43;18.83;57.08
74540;SHT31;66042;51.090;-115.340;2023-06-14T02:26:11;18.77;57.28
74540;SHT31;66042;51.090;-115.340;2023-06-14T02:28:38;18.72;57.29
74540;SHT31;66042;51.090;-115.340;2023-06-14T02:31:05;18.71;57.17
74540;SHT31;66042;51.090;-115.340;2023-06-14T02:33:31;18.74;57.01
74540;SHT31;66042;51.090;-115.340;2023-06-14T02:35:58;18.75;57.38
74540;SHT31;66042;51.090;-115.340;2023-06-14T02:38:44;18.73;57.25
74540;SHT31;66042;51.090;-115.340;2023-06-14T02:41:12;18.70;57.33
74540;SHT31;66042;51.090;-115.340;2023-06-14T02:44:19;18.71;57.11
74540;SHT31;66042;51.090;-115.340;2023-06-14T02:46:52;18.68;56.65
74540;SHT31;66042;51.090;-115.340;2023-06-14T02:49:37;18.70;56.43
74540;SHT31;66042;51.090;-115.340;2023-06-14T02:54:50;18.65;54.43
74540;SHT31;66042;51.090;-115.340;2023-06-14T02:57:17;18.59;54.66
74540;SHT31;66042;51.090;-115.340;2023-06-14T02:59:45;18.55;55.35
74540;SHT31;66042;51.090;-115.340;2023-06-14T03:02:12;18.46;54.89
74540;SHT31;66042;51.090;-115.340;2023-06-14T03:04:39;18.42;55.23
74540;SHT31;66042;51.090;-115.340;2023-06-14T03:09:53;18.42;56.88
74540;SHT31;66042;51.090;-115.340;2023-06-14T03:12:38;18.38;57.67
74540;SHT31;66042;51.090;-115.340;2023-06-14T03:15:05;18.30;58.06
74540;SHT31;66042;51.090;-115.340;2023-06-14T03:17:52;18.29;58.42
74540;SHT31;66042;51.090;-115.340;2023-06-14T03:20:20;18.17;60.01
74540;SHT31;66042;51.090;-115.340;2023-06-14T03:22:47;18.02;59.64
74540;SHT31;66042;51.090;-115.340;2023-06-14T03:25:32;17.97;60.47
74540;SHT31;66042;51.090;-115.340;2023-06-14T03:28:04;17.78;61.46
74540;SHT31;66042;51.090;-115.340;2023-06-14T03:30:31;17.74;61.29
74540;SHT31;66042;51.090;-115.340;2023-06-14T03:32:57;17.79;60.94
74540;SHT31;66042;51.090;-115.340;2023-06-14T03:35:26;17.81;61.52
74540;SHT31;66042;51.090;-115.340;2023-06-14T03:40:40;17.70;62.03
74540;SHT31;66042;51.090;-115.340;2023-06-14T03:43:07;17.73;61.58
74540;SHT31;66042;51.090;-115.340;2023-06-14T03:45:34;17.78;61.77
74540;SHT31;66042;51.090;-115.340;2023-06-14T03:48:01;17.81;61.46
74540;SHT31;66042;51.090;-115.340;2023-06-14T03:53:13;17.84;61.10
74540;SHT31;66042;51.090;-115.340;2023-06-14T03:55:58;17.84;60.89
74540;SHT31;66042;51.090;-115.340;2023-06-14T03:58:25;17.81;60.55
74540;SHT31;66042;51.090;-115.340;2023-06-14T04:00:53;17.79;60.40
74540;SHT31;66042;51.090;-115.340;2023-06-14T04:03:20;17.79;60.22
74540;SHT31;66042;51.090;-115.340;2023-06-14T04:05:50;17.73;59.88
74540;SHT31;66042;51.090;-115.340;2023-06-14T04:11:05;17.62;59.36
74540;SHT31;66042;51.090;-115.340;2023-06-14T04:13:31;17.61;59.59
74540;SHT31;66042;51.090;-115.340;2023-06-14T04:16:00;17.58;59.47
74540;SHT31;66042;51.090;-115.340;2023-06-14T04:18:27;17.59;59.31
74540;SHT31;66042;51.090;-115.340;2023-06-14T04:20:54;17.59;59.48
74540;SHT31;66042;51.090;-115.340;2023-06-14T04:23:40;17.56;59.72
74540;SHT31;66042;51.090;-115.340;2023-06-14T04:26:09;17.54;59.71
74540;SHT31;66042;51.090;-115.340;2023-06-14T04:28:36;17.47;60.01
74540;SHT31;66042;51.090;-115.340;2023-06-14T04:31:21;17.37;60.89
74540;SHT31;66042;51.090;-115.340;2023-06-14T04:33:51;17.27;60.60
74540;SHT31;66042;51.090;-115.340;2023-06-14T04:36:19;17.27;60.89
74540;SHT31;66042;51.090;-115.340;2023-06-14T04:38:46;17.24;60.94
74540;SHT31;66042;51.090;-115.340;2023-06-14T04:41:31;17.21;61.33
74540;SHT31;66042;51.090;-115.340;2023-06-14T04:43:58;17.16;61.51
74540;SHT31;66042;51.090;-115.340;2023-06-14T04:46:29;17.11;60.98
74540;SHT31;66042;51.090;-115.340;2023-06-14T04:49:15;17.08;60.69
74540;SHT31;66042;51.090;-115.340;2023-06-14T04:51:43;17.09;60.63
74540;SHT31;66042;51.090;-115.340;2023-06-14T04:54:12;17.04;61.02
74540;SHT31;66042;51.090;-115.340;2023-06-14T04:56:39;16.98;61.28
74540;SHT31;66042;51.090;-115.340;2023-06-14T04:59:09;16.84;60.98
74540;SHT31;66042;51.090;-115.340;2023-06-14T05:01:40;16.84;60.74
74540;SHT31;66042;51.090;-115.340;2023-06-14T05:04:07;16.89;61.02
74540;SHT31;66042;51.090;-115.340;2023-06-14T05:06:35;16.91;60.92
74540;SHT31;66042;51.090;-115.340;2023-06-14T05:09:01;16.95;60.95
74540;SHT31;66042;51.090;-115.340;2023-06-14T05:11:47;16.97;60.84
74540;SHT31;66042;51.090;-115.340;2023-06-14T05:14:15;16.94;61.27
74540;SHT31;66042;51.090;-115.340;2023-06-14T05:16:43;16.88;61.38
74540;SHT31;66042;51.090;-115.340;2023-06-14T05:19:10;16.88;61.21
74540;SHT31;66042;51.090;-115.340;2023-06-14T05:21:37;16.88;61.14
74540;SHT31;66042;51.090;-115.340;2023-06-14T05:24:04;16.83;61.34
74540;SHT31;66042;51.090;-115.340;2023-06-14T05:26:31;16.77;61.69
74540;SHT31;66042;51.090;-115.340;2023-06-14T05:28:58;16.72;61.89
74540;SHT31;66042;51.090;-115.340;2023-06-14T05:31:27;16.69;62.04
74540;SHT31;66042;51.090;-115.340;2023-06-14T05:33:57;16.67;61.73
74540;SHT31;66042;51.090;-115.340;2023-06-14T05:36:24;16.62;61.90
74540;SHT31;66042;51.090;-115.340;2023-06-14T05:38:53;16.56;61.84
74540;SHT31;66042;51.090;-115.340;2023-06-14T05:41:28;16.51;61.72
74540;SHT31;66042;51.090;-115.340;2023-06-14T05:43:55;16.48;61.62
74540;SHT31;66042;51.090;-115.340;2023-06-14T05:46:23;16.47;61.57
74540;SHT31;66042;51.090;-115.340;2023-06-14T05:48:51;16.43;61.69
74540;SHT31;66042;51.090;-115.340;2023-06-14T05:51:37;16.33;62.50
74540;SHT31;66042;51.090;-115.340;2023-06-14T05:54:23;16.14;63.09
74540;SHT31;66042;51.090;-115.340;2023-06-14T05:56:51;16.10;62.83
74540;SHT31;66042;51.090;-115.340;2023-06-14T05:59:17;16.09;62.89
74540;SHT31;66042;51.090;-115.340;2023-06-14T06:01:44;16.13;62.63
74540;SHT31;66042;51.090;-115.340;2023-06-14T06:04:30;16.17;62.79
74540;SHT31;66042;51.090;-115.340;2023-06-14T06:07:01;16.13;62.97
74540;SHT31;66042;51.090;-115.340;2023-06-14T06:09:29;16.09;63.18
74540;SHT31;66042;51.090;-115.340;2023-06-14T06:11:56;16.11;62.96
74540;SHT31;66042;51.090;-115.340;2023-06-14T06:14:23;16.15;63.04
74540;SHT31;66042;51.090;-115.340;2023-06-14T06:16:50;16.14;62.97
74540;SHT31;66042;51.090;-115.340;2023-06-14T06:19:18;16.16;62.45
74540;SHT31;66042;51.090;-115.340;2023-06-14T06:21:45;16.18;62.29
74540;SHT31;66042;51.090;-115.340;2023-06-14T06:24:11;16.15;62.82
74540;SHT31;66042;51.090;-115.340;2023-06-14T06:26:38;16.14;62.34
74540;SHT31;66042;51.090;-115.340;2023-06-14T06:29:05;16.15;62.26
74540;SHT31;66042;51.090;-115.340;2023-06-14T06:31:32;16.16;62.45
74540;SHT31;66042;51.090;-115.340;2023-06-14T06:34:00;16.20;62.16
74540;SHT31;66042;51.090;-115.340;2023-06-14T06:36:27;16.24;62.04
74540;SHT31;66042;51.090;-115.340;2023-06-14T06:38:54;16.21;62.14
74540;SHT31;66042;51.090;-115.340;2023-06-14T06:41:38;16.16;62.44
74540;SHT31;66042;51.090;-115.340;2023-06-14T06:44:23;16.10;62.70
74540;SHT31;66042;51.090;-115.340;2023-06-14T06:46:50;16.02;62.89
74540;SHT31;66042;51.090;-115.340;2023-06-14T06:49:19;15.95;62.70
74540;SHT31;66042;51.090;-115.340;2023-06-14T06:51:58;15.93;62.68
74540;SHT31;66042;51.090;-115.340;2023-06-14T06:54:27;15.90;62.96
74540;SHT31;66042;51.090;-115.340;2023-06-14T06:56:55;15.87;63.02
74540;SHT31;66042;51.090;-115.340;2023-06-14T06:59:22;15.85;63.31
74540;SHT31;66042;51.090;-115.340;2023-06-14T07:01:52;15.78;63.24
74540;SHT31;66042;51.090;-115.340;2023-06-14T07:04:19;15.73;63.09
74540;SHT31;66042;51.090;-115.340;2023-06-14T07:07:04;15.78;63.02
74540;SHT31;66042;51.090;-115.340;2023-06-14T07:12:54;15.80;62.97
74540;SHT31;66042;51.090;-115.340;2023-06-14T07:15:21;15.84;62.97
74540;SHT31;66042;51.090;-115.340;2023-06-14T07:17:48;15.81;63.19
74540;SHT31;66042;51.090;-115.340;2023-06-14T07:20:16;15.81;62.94
74540;SHT31;66042;51.090;-115.340;2023-06-14T07:22:43;15.78;63.47
74540;SHT31;66042;51.090;-115.340;2023-06-14T07:25:11;15.72;63.74
74540;SHT31;66042;51.090;-115.340;2023-06-14T07:27:42;15.63;63.85
74540;SHT31;66042;51.090;-115.340;2023-06-14T07:30:11;15.61;63.89
74540;SHT31;66042;51.090;-115.340;2023-06-14T07:32:56;15.62;63.83
74540;SHT31;66042;51.090;-115.340;2023-06-14T07:35:23;15.63;63.66
74540;SHT31;66042;51.090;-115.340;2023-06-14T07:37:50;15.65;63.27
74540;SHT31;66042;51.090;-115.340;2023-06-14T07:40:53;15.72;63.12
74540;SHT31;66042;51.090;-115.340;2023-06-14T07:43:20;15.72;63.28
74540;SHT31;66042;51.090;-115.340;2023-06-14T07:45:47;15.72;63.32
74540;SHT31;66042;51.090;-115.340;2023-06-14T07:48:14;15.78;63.24
74540;SHT31;66042;51.090;-115.340;2023-06-14T07:51:00;15.81;63.23
74540;SHT31;66042;51.090;-115.340;2023-06-14T07:53:45;15.81;63.23
74540;SHT31;66042;51.090;-115.340;2023-06-14T07:58:58;15.72;63.45
74540;SHT31;66042;51.090;-115.340;2023-06-14T08:01:25;15.63;63.79
74540;SHT31;66042;51.090;-115.340;2023-06-14T08:03:53;15.60;63.44
74540;SHT31;66042;51.090;-115.340;2023-06-14T08:06:20;15.63;63.14
74540;SHT31;66042;51.090;-115.340;2023-06-14T08:08:47;15.67;62.97
74540;SHT31;66042;51.090;-115.340;2023-06-14T08:11:14;15.68;63.02
74540;SHT31;66042;51.090;-115.340;2023-06-14T08:13:41;15.67;62.97
74540;SHT31;66042;51.090;-115.340;2023-06-14T08:16:09;15.70;62.86
74540;SHT31;66042;51.090;-115.340;2023-06-14T08:18:36;15.73;62.84
74540;SHT31;66042;51.090;-115.340;2023-06-14T08:21:03;15.74;62.97
74540;SHT31;66042;51.090;-115.340;2023-06-14T08:23:29;15.76;62.98
74540;SHT31;66042;51.090;-115.340;2023-06-14T08:25:56;15.70;63.32
74540;SHT31;66042;51.090;-115.340;2023-06-14T08:28:23;15.70;63.24
74540;SHT31;66042;51.090;-115.340;2023-06-14T08:30:50;15.69;63.44
74540;SHT31;66042;51.090;-115.340;2023-06-14T08:33:17;15.63;63.52
74540;SHT31;66042;51.090;-115.340;2023-06-14T08:35:44;15.60;63.63
74540;SHT31;66042;51.090;-115.340;2023-06-14T08:38:11;15.60;63.50
74540;SHT31;66042;51.090;-115.340;2023-06-14T08:40:38;15.62;63.16
74540;SHT31;66042;51.090;-115.340;2023-06-14T08:43:07;15.66;63.07
74540;SHT31;66042;51.090;-115.340;2023-06-14T08:45:34;15.67;63.14
74540;SHT31;66042;51.090;-115.340;2023-06-14T08:48:02;15.64;63.60
74540;SHT31;66042;51.090;-115.340;2023-06-14T08:50:31;15.59;63.58
74540;SHT31;66042;51.090;-115.340;2023-06-14T08:53:00;15.55;63.65
74540;SHT31;66042;51.090;-115.340;2023-06-14T08:55:28;15.52;63.87
74540;SHT31;66042;51.090;-115.340;2023-06-14T08:57:58;15.45;64.03
74540;SHT31;66042;51.090;-115.340;2023-06-14T09:00:26;15.40;64.10
74540;SHT31;66042;51.090;-115.340;2023-06-14T09:02:54;15.38;64.13
74540;SHT31;66042;51.090;-115.340;2023-06-14T09:05:25;15.32;64.19
74540;SHT31;66042;51.090;-115.340;2023-06-14T09:07:54;15.30;64.09
74540;SHT31;66042;51.090;-115.340;2023-06-14T09:10:26;15.28;63.91
74540;SHT31;66042;51.090;-115.340;2023-06-14T09:12:54;15.26;63.82
74540;SHT31;66042;51.090;-115.340;2023-06-14T09:15:22;15.27;63.84
74540;SHT31;66042;51.090;-115.340;2023-06-14T09:17:49;15.27;64.00
74540;SHT31;66042;51.090;-115.340;2023-06-14T09:20:16;15.21;64.49
74540;SHT31;66042;51.090;-115.340;2023-06-14T09:22:44;15.12;64.75
74540;SHT31;66042;51.090;-115.340;2023-06-14T09:25:11;15.07;64.68
74540;SHT31;66042;51.090;-115.340;2023-06-14T09:27:40;15.06;64.78
74540;SHT31;66042;51.090;-115.340;2023-06-14T09:30:10;15.05;65.06
74540;SHT31;66042;51.090;-115.340;2023-06-14T09:32:38;14.93;65.59
74540;SHT31;66042;51.090;-115.340;2023-06-14T09:35:06;14.85;65.80
74540;SHT31;66042;51.090;-115.340;2023-06-14T09:37:34;14.88;65.54
74540;SHT31;66042;51.090;-115.340;2023-06-14T09:40:03;14.91;65.46
74540;SHT31;66042;51.090;-115.340;2023-06-14T09:42:35;14.96;65.47
74540;SHT31;66042;51.090;-115.340;2023-06-14T09:45:02;14.98;65.41
74540;SHT31;66042;51.090;-115.340;2023-06-14T09:47:31;15.01;65.45
74540;SHT31;66042;51.090;-115.340;2023-06-14T09:49:58;15.04;65.07
74540;SHT31;66042;51.090;-115.340;2023-06-14T09:52:25;15.09;65.35
74540;SHT31;66042;51.090;-115.340;2023-06-14T09:54:54;15.11;65.60
74540;SHT31;66042;51.090;-115.340;2023-06-14T09:57:24;15.12;65.83
74540;SHT31;66042;51.090;-115.340;2023-06-14T09:59:57;15.14;66.15
74540;SHT31;66042;51.090;-115.340;2023-06-14T10:02:28;15.14;66.24
74540;SHT31;66042;51.090;-115.340;2023-06-14T10:10:48;15.09;66.49
74540;SHT31;66042;51.090;-115.340;2023-06-14T10:13:15;15.10;66.55
74540;SHT31;66042;51.090;-115.340;2023-06-14T10:21:21;15.03;67.43
74540;SHT31;66042;51.090;-115.340;2023-06-14T10:24:08;14.93;67.33
74540;SHT31;66042;51.090;-115.340;2023-06-14T10:26:54;14.96;67.37
74540;SHT31;66042;51.090;-115.340;2023-06-14T10:29:25;15.00;67.18
74540;SHT31;66042;51.090;-115.340;2023-06-14T10:31:58;15.01;67.25
74540;SHT31;66042;51.090;-115.340;2023-06-14T10:34:26;15.03;67.14
74540;SHT31;66042;51.090;-115.340;2023-06-14T10:37:12;15.03;67.02
74540;SHT31;66042;51.090;-115.340;2023-06-14T10:39:40;15.00;67.29
74540;SHT31;66042;51.090;-115.340;2023-06-14T10:42:12;14.91;67.94
74540;SHT31;66042;51.090;-115.340;2023-06-14T10:44:44;14.82;68.10
74540;SHT31;66042;51.090;-115.340;2023-06-14T10:49:50;14.80;68.22
74540;SHT31;66042;51.090;-115.340;2023-06-14T10:52:23;14.82;68.08
74540;SHT31;66042;51.090;-115.340;2023-06-14T10:55:07;14.80;68.49
74540;SHT31;66042;51.090;-115.340;2023-06-14T10:57:48;14.78;68.24
74540;SHT31;66042;51.090;-115.340;2023-06-14T11:00:21;14.75;68.58
74540;SHT31;66042;51.090;-115.340;2023-06-14T11:08:27;14.87;67.77
74540;SHT31;66042;51.090;-115.340;2023-06-14T11:11:38;14.86;68.26
74540;SHT31;66042;51.090;-115.340;2023-06-14T11:14:09;14.86;67.95
74540;SHT31;66042;51.090;-115.340;2023-06-14T11:16:36;14.91;67.82
74540;SHT31;66042;51.090;-115.340;2023-06-14T11:19:03;14.92;67.64
74540;SHT31;66042;51.090;-115.340;2023-06-14T11:21:34;14.92;67.59
74540;SHT31;66042;51.090;-115.340;2023-06-14T11:24:09;14.88;67.73
74540;SHT31;66042;51.090;-115.340;2023-06-14T11:26:37;14.84;67.85
74540;SHT31;66042;51.090;-115.340;2023-06-14T11:29:04;14.87;67.54
74540;SHT31;66042;51.090;-115.340;2023-06-14T11:31:31;14.93;67.40
74540;SHT31;66042;51.090;-115.340;2023-06-14T11:33:58;14.95;67.47
74540;SHT31;66042;51.090;-115.340;2023-06-14T11:36:27;14.96;67.43
74540;SHT31;66042;51.090;-115.340;2023-06-14T11:39:00;14.97;67.27
74540;SHT31;66042;51.090;-115.340;2023-06-14T11:44:26;15.05;67.07
74540;SHT31;66042;51.090;-115.340;2023-06-14T11:46:54;15.05;67.50
74540;SHT31;66042;51.090;-115.340;2023-06-14T11:49:23;14.98;67.93
74540;SHT31;66042;51.090;-115.340;2023-06-14T11:51:53;14.92;68.30
74540;SHT31;66042;51.090;-115.340;2023-06-14T11:54:20;14.89;67.99
74540;SHT31;66042;51.090;-115.340;2023-06-14T11:56:47;14.92;67.73
74540;SHT31;66042;51.090;-115.340;2023-06-14T11:59:14;14.98;67.90
74540;SHT31;66042;51.090;-115.340;2023-06-14T12:01:42;14.98;68.61
74540;SHT31;66042;51.090;-115.340;2023-06-14T12:04:10;14.94;68.92
74540;SHT31;66042;51.090;-115.340;2023-06-14T12:06:37;14.95;68.58
74540;SHT31;66042;51.090;-115.340;2023-06-14T12:09:05;15.01;68.46
74540;SHT31;66042;51.090;-115.340;2023-06-14T12:11:38;15.02;68.68
74540;SHT31;66042;51.090;-115.340;2023-06-14T12:14:05;14.99;68.54
74540;SHT31;66042;51.090;-115.340;2023-06-14T12:16:35;14.97;68.46
74540;SHT31;66042;51.090;-115.340;2023-06-14T12:19:15;14.94;68.76
74540;SHT31;66042;51.090;-115.340;2023-06-14T12:21:43;14.93;68.89
74540;SHT31;66042;51.090;-115.340;2023-06-14T12:24:16;14.93;68.80
74540;SHT31;66042;51.090;-115.340;2023-06-14T12:26:43;14.96;68.69
74540;SHT31;66042;51.090;-115.340;2023-06-14T12:29:12;15.01;68.34
74540;SHT31;66042;51.090;-115.340;2023-06-14T12:31:39;15.01;69.19
74540;SHT31;66042;51.090;-115.340;2023-06-14T12:34:07;15.01;69.20
74540;SHT31;66042;51.090;-115.340;2023-06-14T12:36:34;15.00;69.42
74540;SHT31;66042;51.090;-115.340;2023-06-14T12:39:07;14.97;69.45
74540;SHT31;66042;51.090;-115.340;2023-06-14T12:41:34;15.00;69.41
74540;SHT31;66042;51.090;-115.340;2023-06-14T12:44:02;15.00;69.84
74540;SHT31;66042;51.090;-115.340;2023-06-14T12:46:32;14.99;69.79
74540;SHT31;66042;51.090;-115.340;2023-06-14T12:49:05;15.04;69.36
74540;SHT31;66042;51.090;-115.340;2023-06-14T12:51:34;15.10;69.00
74540;SHT31;66042;51.090;-115.340;2023-06-14T12:54:01;15.12;69.21
74540;SHT31;66042;51.090;-115.340;2023-06-14T12:56:28;15.11;68.99
74540;SHT31;66042;51.090;-115.340;2023-06-14T12:58:55;15.13;68.73
74540;SHT31;66042;51.090;-115.340;2023-06-14T13:01:22;15.15;68.86
74540;SHT31;66042;51.090;-115.340;2023-06-14T13:03:49;15.17;68.87
74540;SHT31;66042;51.090;-115.340;2023-06-14T13:06:17;15.16;69.32
74540;SHT31;66042;51.090;-115.340;2023-06-14T13:08:44;15.08;69.78
74540;SHT31;66042;51.090;-115.340;2023-06-14T13:11:11;15.05;69.82
74540;SHT31;66042;51.090;-115.340;2023-06-14T13:13:38;15.07;69.43
74540;SHT31;66042;51.090;-115.340;2023-06-14T13:16:05;15.11;69.51
74540;SHT31;66042;51.090;-115.340;2023-06-14T13:18:32;15.06;69.74
74540;SHT31;66042;51.090;-115.340;2023-06-14T13:21:00;15.06;69.72
74540;SHT31;66042;51.090;-115.340;2023-06-14T13:23:27;15.07;69.56
74540;SHT31;66042;51.090;-115.340;2023-06-14T13:25:54;15.08;69.32
74540;SHT31;66042;51.090;-115.340;2023-06-14T13:28:20;15.07;69.05
74540;SHT31;66042;51.090;-115.340;2023-06-14T13:30:48;15.06;68.81
74540;SHT31;66042;51.090;-115.340;2023-06-14T13:33:15;15.06;68.50
74540;SHT31;66042;51.090;-115.340;2023-06-14T13:35:42;15.05;68.62
74540;SHT31;66042;51.090;-115.340;2023-06-14T13:38:09;15.05;68.49
74540;SHT31;66042;51.090;-115.340;2023-06-14T13:40:36;14.98;68.80
74540;SHT31;66042;51.090;-115.340;2023-06-14T13:43:03;14.93;68.57
74540;SHT31;66042;51.090;-115.340;2023-06-14T13:45:30;14.94;68.50
74540;SHT31;66042;51.090;-115.340;2023-06-14T13:47:57;14.94;68.37
74540;SHT31;66042;51.090;-115.340;2023-06-14T13:50:24;14.94;68.49
74540;SHT31;66042;51.090;-115.340;2023-06-14T13:52:51;14.95;68.14
74540;SHT31;66042;51.090;-115.340;2023-06-14T13:55:18;14.98;67.81
74540;SHT31;66042;51.090;-115.340;2023-06-14T13:57:45;14.99;67.81
74540;SHT31;66042;51.090;-115.340;2023-06-14T14:00:12;15.01;67.84
74540;SHT31;66042;51.090;-115.340;2023-06-14T14:02:40;14.99;68.02
74540;SHT31;66042;51.090;-115.340;2023-06-14T14:05:07;14.97;67.84
74540;SHT31;66042;51.090;-115.340;2023-06-14T14:07:35;14.96;68.16
74540;SHT31;66042;51.090;-115.340;2023-06-14T14:10:03;14.90;68.58
74540;SHT31;66042;51.090;-115.340;2023-06-14T14:12:30;14.90;68.58
74540;SHT31;66042;51.090;-115.340;2023-06-14T14:14:57;14.91;68.87
74540;SHT31;66042;51.090;-115.340;2023-06-14T14:17:24;14.85;68.90
74540;SHT31;66042;51.090;-115.340;2023-06-14T14:19:51;14.81;68.61
74540;SHT31;66042;51.090;-115.340;2023-06-14T14:22:18;14.79;67.90
74540;SHT31;66042;51.090;-115.340;2023-06-14T14:24:44;14.75;67.92
74540;SHT31;66042;51.090;-115.340;2023-06-14T14:27:12;14.68;67.35
74540;SHT31;66042;51.090;-115.340;2023-06-14T14:29:39;14.59;67.34
74540;SHT31;66042;51.090;-115.340;2023-06-14T14:32:06;14.57;67.27
74540;SHT31;66042;51.090;-115.340;2023-06-14T14:34:38;14.55;67.14
74540;SHT31;66042;51.090;-115.340;2023-06-14T14:37:06;14.54;67.35
74540;SHT31;66042;51.090;-115.340;2023-06-14T14:39:33;14.48;67.25
74540;SHT31;66042;51.090;-115.340;2023-06-14T14:42:00;14.42;67.39
74540;SHT31;66042;51.090;-115.340;2023-06-14T14:44:27;14.24;67.83
74540;SHT31;66042;51.090;-115.340;2023-06-14T14:46:54;14.15;68.02
74540;SHT31;66042;51.090;-115.340;2023-06-14T14:49:20;14.13;68.09
74540;SHT31;66042;51.090;-115.340;2023-06-14T14:51:47;14.14;68.27
74540;SHT31;66042;51.090;-115.340;2023-06-14T14:54:14;14.08;68.33
74540;SHT31;66042;51.090;-115.340;2023-06-14T14:56:41;14.06;68.36
74540;SHT31;66042;51.090;-115.340;2023-06-14T14:59:08;14.06;68.50
74540;SHT31;66042;51.090;-115.340;2023-06-14T15:01:35;14.07;68.66
74540;SHT31;66042;51.090;-115.340;2023-06-14T15:04:02;14.03;68.63
74540;SHT31;66042;51.090;-115.340;2023-06-14T15:06:29;14.03;68.50
74540;SHT31;66042;51.090;-115.340;2023-06-14T15:08:56;14.04;68.40
74540;SHT31;66042;51.090;-115.340;2023-06-14T15:11:24;14.07;68.22
74540;SHT31;66042;51.090;-115.340;2023-06-14T15:13:51;14.13;67.87
74540;SHT31;66042;51.090;-115.340;2023-06-14T15:16:18;14.08;68.11
74540;SHT31;66042;51.090;-115.340;2023-06-14T15:18:45;13.98;68.03
74540;SHT31;66042;51.090;-115.340;2023-06-14T15:21:12;13.95;68.10
74540;SHT31;66042;51.090;-115.340;2023-06-14T15:23:40;13.87;67.88
74540;SHT31;66042;51.090;-115.340;2023-06-14T15:26:06;13.72;68.16
74540;SHT31;66042;51.090;-115.340;2023-06-14T15:28:33;13.65;68.33
74540;SHT31;66042;51.090;-115.340;2023-06-14T15:31:00;13.57;68.43
74540;SHT31;66042;51.090;-115.340;2023-06-14T15:33:29;13.56;68.65
74540;SHT31;66042;51.090;-115.340;2023-06-14T15:35:57;13.60;68.75
74540;SHT31;66042;51.090;-115.340;2023-06-14T15:38:24;13.59;68.67
74540;SHT31;66042;51.090;-115.340;2023-06-14T15:40:51;13.59;68.55
74540;SHT31;66042;51.090;-115.340;2023-06-14T15:43:18;13.62;68.52
74540;SHT31;66042;51.090;-115.340;2023-06-14T15:45:45;13.65;68.61
74540;SHT31;66042;51.090;-115.340;2023-06-14T15:48:12;13.63;69.02
74540;SHT31;66042;51.090;-115.340;2023-06-14T15:50:39;13.54;69.24
74540;SHT31;66042;51.090;-115.340;2023-06-14T15:53:06;13.50;69.40
74540;SHT31;66042;51.090;-115.340;2023-06-14T15:55:33;13.50;69.57
74540;SHT31;66042;51.090;-115.340;2023-06-14T15:58:00;13.48;69.65
74540;SHT31;66042;51.090;-115.340;2023-06-14T16:00:28;13.46;69.37
74540;SHT31;66042;51.090;-115.340;2023-06-14T16:02:55;13.51;69.55
74540;SHT31;66042;51.090;-115.340;2023-06-14T16:05:22;13.53;69.71
74540;SHT31;66042;51.090;-115.340;2023-06-14T16:07:49;13.50;69.73
74540;SHT31;66042;51.090;-115.340;2023-06-14T16:10:15;13.55;69.69